sensor_id;sensor_type;location;lat;lon;timestamp;pressure;altitude;pressure_sealevel;temperature;humidity
47811;BME280;33575;52.600;7.318;2023-01-24T00:02:20;103772.32;;;2.90;93.75
47811;BME280;33575;52.600;7.318;2023-01-24T00:04:50;103769.86;;;2.93;93.70
47811;BME280;33575;52.600;7.318;2023-01-24T00:07:23;103770.35;;;2.96;93.24
47811;BME280;33575;52.600;7.318;2023-01-24T00:09:51;103768.05;;;3.00;93.55
47811;BME280;33575;52.600;7.318;2023-01-24T00:12:22;103766.13;;;3.04;93.00
47811;BME280;33575;52.600;7.318;2023-01-24T00:14:52;103766.97;;;3.08;93.26
47811;BME280;33575;52.600;7.318;2023-01-24T00:17:22;103761.59;;;3.09;93.24
47811;BME280;33575;52.600;7.318;2023-01-24T00:19:53;103763.76;;;3.11;92.69
47811;BME280;33575;52.600;7.318;2023-01-24T00:22:23;103758.91;;;3.12;92.97
47811;BME280;33575;52.600;7.318;2023-01-24T00:24:53;103755.55;;;3.09;91.48
47811;BME280;33575;52.600;7.318;2023-01-24T00:27:24;103757.28;;;3.08;92.03
47811;BME280;33575;52.600;7.318;2023-01-24T00:29:54;103755.74;;;3.08;92.13
47811;BME280;33575;52.600;7.318;2023-01-24T00:32:25;103760.58;;;3.05;92.98
47811;BME280;33575;52.600;7.318;2023-01-24T00:34:55;103764.13;;;3.06;92.89
47811;BME280;33575;52.600;7.318;2023-01-24T00:37:25;103762.92;;;3.09;92.68
47811;BME280;33575;52.600;7.318;2023-01-24T00:39:56;103760.32;;;3.06;91.82
47811;BME280;33575;52.600;7.318;2023-01-24T00:42:26;103759.93;;;3.08;91.97
47811;BME280;33575;52.600;7.318;2023-01-24T00:44:57;103754.34;;;3.12;92.33
47811;BME280;33575;52.600;7.318;2023-01-24T00:47:27;103749.69;;;3.09;92.90
47811;BME280;33575;52.600;7.318;2023-01-24T00:49:57;103747.08;;;3.01;91.77
47811;BME280;33575;52.600;7.318;2023-01-24T00:52:28;103745.79;;;3.06;92.24
47811;BME280;33575;52.600;7.318;2023-01-24T00:54:58;103745.00;;;3.08;92.26
47811;BME280;33575;52.600;7.318;2023-01-24T00:57:28;103743.67;;;3.08;92.90
47811;BME280;33575;52.600;7.318;2023-01-24T00:59:59;103746.23;;;3.08;92.57
47811;BME280;33575;52.600;7.318;2023-01-24T01:02:29;103743.69;;;3.10;92.54
47811;BME280;33575;52.600;7.318;2023-01-24T01:05:00;103744.92;;;3.09;92.42
47811;BME280;33575;52.600;7.318;2023-01-24T01:07:30;103746.69;;;3.11;92.01
47811;BME280;33575;52.600;7.318;2023-01-24T01:10:01;103751.44;;;3.15;91.71
47811;BME280;33575;52.600;7.318;2023-01-24T01:12:32;103749.72;;;3.19;91.65
47811;BME280;33575;52.600;7.318;2023-01-24T01:15:03;103744.28;;;3.03;91.96
47811;BME280;33575;52.600;7.318;2023-01-24T01:17:33;103741.68;;;3.01;91.58
47811;BME280;33575;52.600;7.318;2023-01-24T01:20:03;103741.38;;;2.96;91.72
47811;BME280;33575;52.600;7.318;2023-01-24T01:22:33;103742.27;;;2.92;91.56
47811;BME280;33575;52.600;7.318;2023-01-24T01:25:04;103737.15;;;2.84;91.60
47811;BME280;33575;52.600;7.318;2023-01-24T01:27:34;103737.17;;;2.78;91.43
47811;BME280;33575;52.600;7.318;2023-01-24T01:30:05;103739.48;;;2.78;91.01
47811;BME280;33575;52.600;7.318;2023-01-24T01:32:34;103739.91;;;2.71;91.19
47811;BME280;33575;52.600;7.318;2023-01-24T01:35:05;103742.11;;;2.68;90.92
47811;BME280;33575;52.600;7.318;2023-01-24T01:37:35;103744.70;;;2.70;90.58
47811;BME280;33575;52.600;7.318;2023-01-24T01:40:08;103745.46;;;2.66;91.47
47811;BME280;33575;52.600;7.318;2023-01-24T01:42:43;103744.19;;;2.75;92.21
47811;BME280;33575;52.600;7.318;2023-01-24T01:47:38;103730.71;;;2.75;90.53
47811;BME280;33575;52.600;7.318;2023-01-24T01:50:17;103726.99;;;2.71;90.81
47811;BME280;33575;52.600;7.318;2023-01-24T01:52:41;103729.08;;;2.67;91.52
47811;BME280;33575;52.600;7.318;2023-01-24T01:55:13;103726.14;;;2.74;90.27
47811;BME280;33575;52.600;7.318;2023-01-24T01:57:39;103725.12;;;2.77;90.49
47811;BME280;33575;52.600;7.318;2023-01-24T02:00:12;103723.87;;;2.85;90.65
47811;BME280;33575;52.600;7.318;2023-01-24T02:02:43;103723.61;;;2.87;90.30
47811;BME280;33575;52.600;7.318;2023-01-24T02:05:13;103724.34;;;2.93;90.04
47811;BME280;33575;52.600;7.318;2023-01-24T02:07:44;103719.03;;;2.81;89.26
47811;BME280;33575;52.600;7.318;2023-01-24T02:10:12;103720.18;;;2.85;89.98
47811;BME280;33575;52.600;7.318;2023-01-24T02:12:44;103719.47;;;2.81;89.89
47811;BME280;33575;52.600;7.318;2023-01-24T02:15:15;103720.49;;;2.83;89.47
47811;BME280;33575;52.600;7.318;2023-01-24T02:17:44;103717.40;;;2.79;88.92
47811;BME280;33575;52.600;7.318;2023-01-24T02:20:24;103715.14;;;2.71;89.81
47811;BME280;33575;52.600;7.318;2023-01-24T02:22:53;103718.23;;;2.72;89.56
47811;BME280;33575;52.600;7.318;2023-01-24T02:25:19;103720.14;;;2.81;89.39
47811;BME280;33575;52.600;7.318;2023-01-24T02:27:46;103721.75;;;2.88;88.93
47811;BME280;33575;52.600;7.318;2023-01-24T02:30:17;103720.71;;;2.87;88.75
47811;BME280;33575;52.600;7.318;2023-01-24T02:32:47;103712.90;;;2.77;88.93
47811;BME280;33575;52.600;7.318;2023-01-24T02:35:23;103715.05;;;2.69;89.34
47811;BME280;33575;52.600;7.318;2023-01-24T02:37:48;103716.42;;;2.70;89.66
47811;BME280;33575;52.600;7.318;2023-01-24T02:40:18;103722.48;;;2.76;89.13
47811;BME280;33575;52.600;7.318;2023-01-24T02:42:48;103721.54;;;2.85;89.15
47811;BME280;33575;52.600;7.318;2023-01-24T02:45:21;103720.38;;;2.94;89.30
47811;BME280;33575;52.600;7.318;2023-01-24T02:47:52;103720.67;;;2.95;89.56
47811;BME280;33575;52.600;7.318;2023-01-24T02:50:22;103721.64;;;2.95;89.71
47811;BME280;33575;52.600;7.318;2023-01-24T02:52:50;103722.31;;;3.05;93.44
47811;BME280;33575;52.600;7.318;2023-01-24T02:55:23;103719.87;;;2.82;89.74
47811;BME280;33575;52.600;7.318;2023-01-24T02:57:52;103710.93;;;2.77;89.21
47811;BME280;33575;52.600;7.318;2023-01-24T03:00:22;103713.07;;;2.60;88.70
47811;BME280;33575;52.600;7.318;2023-01-24T03:02:53;103716.16;;;2.47;88.68
47811;BME280;33575;52.600;7.318;2023-01-24T03:05:24;103715.69;;;2.40;88.64
47811;BME280;33575;52.600;7.318;2023-01-24T03:07:54;103716.46;;;2.24;89.80
47811;BME280;33575;52.600;7.318;2023-01-24T03:10:24;103716.51;;;2.16;90.03
47811;BME280;33575;52.600;7.318;2023-01-24T03:12:55;103717.93;;;2.06;90.52
47811;BME280;33575;52.600;7.318;2023-01-24T03:15:26;103717.40;;;2.03;90.02
47811;BME280;33575;52.600;7.318;2023-01-24T03:17:58;103715.85;;;1.98;90.37
47811;BME280;33575;52.600;7.318;2023-01-24T03:20:27;103715.40;;;2.00;91.24
47811;BME280;33575;52.600;7.318;2023-01-24T03:22:57;103720.57;;;2.01;91.28
47811;BME280;33575;52.600;7.318;2023-01-24T03:25:27;103723.06;;;2.08;91.14
47811;BME280;33575;52.600;7.318;2023-01-24T03:28:02;103719.16;;;2.14;90.77
47811;BME280;33575;52.600;7.318;2023-01-24T03:30:29;103716.89;;;2.18;90.53
47811;BME280;33575;52.600;7.318;2023-01-24T03:33:00;103717.02;;;2.24;90.47
47811;BME280;33575;52.600;7.318;2023-01-24T03:35:29;103723.47;;;2.32;90.33
47811;BME280;33575;52.600;7.318;2023-01-24T03:38:00;103722.28;;;2.35;90.35
47811;BME280;33575;52.600;7.318;2023-01-24T03:40:31;103718.18;;;2.34;90.50
47811;BME280;33575;52.600;7.318;2023-01-24T03:43:02;103720.70;;;2.30;90.75
47811;BME280;33575;52.600;7.318;2023-01-24T03:45:34;103715.60;;;2.27;90.10
47811;BME280;33575;52.600;7.318;2023-01-24T03:48:05;103720.68;;;2.23;89.70
47811;BME280;33575;52.600;7.318;2023-01-24T03:50:35;103721.05;;;2.23;89.77
47811;BME280;33575;52.600;7.318;2023-01-24T03:53:06;103717.96;;;2.23;90.06
47811;BME280;33575;52.600;7.318;2023-01-24T03:55:35;103719.34;;;2.17;90.12
47811;BME280;33575;52.600;7.318;2023-01-24T03:58:07;103720.55;;;2.19;89.74
47811;BME280;33575;52.600;7.318;2023-01-24T04:00:37;103720.16;;;2.21;89.34
47811;BME280;33575;52.600;7.318;2023-01-24T04:03:07;103720.05;;;2.22;89.19
47811;BME280;33575;52.600;7.318;2023-01-24T04:05:38;103719.46;;;2.19;89.62
47811;BME280;33575;52.600;7.318;2023-01-24T04:08:09;103722.78;;;2.24;89.62
47811;BME280;33575;52.600;7.318;2023-01-24T04:10:39;103721.25;;;2.24;89.56
47811;BME280;33575;52.600;7.318;2023-01-24T04:13:09;103726.62;;;2.20;89.30
47811;BME280;33575;52.600;7.318;2023-01-24T04:15:40;103733.29;;;2.16;89.96
47811;BME280;33575;52.600;7.318;2023-01-24T04:18:10;103732.17;;;2.17;89.94
47811;BME280;33575;52.600;7.318;2023-01-24T04:20:41;103733.98;;;2.17;89.95
47811;BME280;33575;52.600;7.318;2023-01-24T04:23:12;103733.46;;;2.22;89.32
47811;BME280;33575;52.600;7.318;2023-01-24T04:25:42;103736.78;;;2.20;89.31
47811;BME280;33575;52.600;7.318;2023-01-24T04:28:12;103733.07;;;2.22;89.51
47811;BME280;33575;52.600;7.318;2023-01-24T04:30:43;103732.18;;;2.29;89.29
47811;BME280;33575;52.600;7.318;2023-01-24T04:33:14;103732.95;;;2.32;89.13
47811;BME280;33575;52.600;7.318;2023-01-24T04:35:44;103729.38;;;2.37;89.26
47811;BME280;33575;52.600;7.318;2023-01-24T04:38:15;103730.90;;;2.38;89.64
47811;BME280;33575;52.600;7.318;2023-01-24T04:40:46;103731.20;;;2.41;89.58
47811;BME280;33575;52.600;7.318;2023-01-24T04:43:16;103730.15;;;2.41;89.63
47811;BME280;33575;52.600;7.318;2023-01-24T04:45:47;103731.73;;;2.38;89.69
47811;BME280;33575;52.600;7.318;2023-01-24T04:48:18;103734.06;;;2.34;89.40
47811;BME280;33575;52.600;7.318;2023-01-24T04:50:48;103738.49;;;2.26;88.97
47811;BME280;33575;52.600;7.318;2023-01-24T04:53:19;103733.48;;;2.23;90.14
47811;BME280;33575;52.600;7.318;2023-01-24T04:55:49;103734.40;;;2.21;89.70
47811;BME280;33575;52.600;7.318;2023-01-24T04:58:19;103735.28;;;2.22;89.62
47811;BME280;33575;52.600;7.318;2023-01-24T05:00:50;103736.80;;;2.14;90.67
47811;BME280;33575;52.600;7.318;2023-01-24T05:03:21;103732.45;;;2.23;89.67
47811;BME280;33575;52.600;7.318;2023-01-24T05:05:52;103734.94;;;2.16;90.01
47811;BME280;33575;52.600;7.318;2023-01-24T05:08:22;103740.44;;;2.21;89.34
47811;BME280;33575;52.600;7.318;2023-01-24T05:10:53;103739.34;;;2.29;89.00
47811;BME280;33575;52.600;7.318;2023-01-24T05:13:24;103740.33;;;2.35;89.02
47811;BME280;33575;52.600;7.318;2023-01-24T05:15:54;103740.01;;;2.38;88.72
47811;BME280;33575;52.600;7.318;2023-01-24T05:18:24;103740.34;;;2.42;89.22
47811;BME280;33575;52.600;7.318;2023-01-24T05:20:55;103740.62;;;2.44;88.03
47811;BME280;33575;52.600;7.318;2023-01-24T05:23:26;103738.52;;;2.34;88.47
47811;BME280;33575;52.600;7.318;2023-01-24T05:25:58;103737.55;;;2.28;89.61
47811;BME280;33575;52.600;7.318;2023-01-24T05:28:27;103738.36;;;2.34;89.08
47811;BME280;33575;52.600;7.318;2023-01-24T05:30:58;103739.59;;;2.33;88.59
47811;BME280;33575;52.600;7.318;2023-01-24T05:33:29;103739.68;;;2.34;88.85
47811;BME280;33575;52.600;7.318;2023-01-24T05:35:58;103740.16;;;2.39;88.74
47811;BME280;33575;52.600;7.318;2023-01-24T05:38:29;103741.57;;;2.43;88.99
47811;BME280;33575;52.600;7.318;2023-01-24T05:41:01;103742.69;;;2.44;89.08
47811;BME280;33575;52.600;7.318;2023-01-24T05:43:31;103741.02;;;2.39;88.80
47811;BME280;33575;52.600;7.318;2023-01-24T05:46:03;103743.44;;;2.18;89.41
47811;BME280;33575;52.600;7.318;2023-01-24T05:48:32;103748.13;;;2.16;89.36
47811;BME280;33575;52.600;7.318;2023-01-24T05:51:05;103752.10;;;2.17;89.63
47811;BME280;33575;52.600;7.318;2023-01-24T05:53:34;103750.08;;;2.16;89.20
47811;BME280;33575;52.600;7.318;2023-01-24T05:56:06;103753.93;;;2.21;89.81
47811;BME280;33575;52.600;7.318;2023-01-24T05:58:36;103755.22;;;2.21;89.72
47811;BME280;33575;52.600;7.318;2023-01-24T06:01:06;103753.48;;;2.07;89.93
47811;BME280;33575;52.600;7.318;2023-01-24T06:03:37;103749.98;;;2.07;89.61
47811;BME280;33575;52.600;7.318;2023-01-24T06:06:05;103748.51;;;2.06;88.79
47811;BME280;33575;52.600;7.318;2023-01-24T06:08:35;103750.23;;;2.08;89.69
47811;BME280;33575;52.600;7.318;2023-01-24T06:11:07;103751.47;;;2.14;89.39
47811;BME280;33575;52.600;7.318;2023-01-24T06:13:36;103756.89;;;2.18;89.31
47811;BME280;33575;52.600;7.318;2023-01-24T06:16:10;103760.44;;;2.05;90.71
47811;BME280;33575;52.600;7.318;2023-01-24T06:18:36;103763.21;;;2.07;89.03
47811;BME280;33575;52.600;7.318;2023-01-24T06:21:13;103765.26;;;2.02;89.84
47811;BME280;33575;52.600;7.318;2023-01-24T06:23:37;103770.29;;;2.06;89.57
47811;BME280;33575;52.600;7.318;2023-01-24T06:26:09;103775.12;;;2.10;89.34
47811;BME280;33575;52.600;7.318;2023-01-24T06:28:38;103777.14;;;1.99;89.61
47811;BME280;33575;52.600;7.318;2023-01-24T06:31:20;103776.83;;;1.96;89.96
47811;BME280;33575;52.600;7.318;2023-01-24T06:33:46;103775.14;;;2.03;89.65
47811;BME280;33575;52.600;7.318;2023-01-24T06:38:40;103770.90;;;1.99;89.50
47811;BME280;33575;52.600;7.318;2023-01-24T06:41:14;103767.86;;;2.06;89.71
47811;BME280;33575;52.600;7.318;2023-01-24T06:43:40;103771.43;;;2.13;90.01
47811;BME280;33575;52.600;7.318;2023-01-24T06:46:11;103768.18;;;2.17;90.04
47811;BME280;33575;52.600;7.318;2023-01-24T06:48:42;103772.24;;;2.31;98.69
47811;BME280;33575;52.600;7.318;2023-01-24T06:51:12;103770.52;;;2.38;91.28
47811;BME280;33575;52.600;7.318;2023-01-24T06:53:41;103768.83;;;2.20;89.06
47811;BME280;33575;52.600;7.318;2023-01-24T06:56:12;103766.14;;;2.09;88.43
47811;BME280;33575;52.600;7.318;2023-01-24T06:58:42;103767.18;;;1.89;88.93
47811;BME280;33575;52.600;7.318;2023-01-24T07:01:13;103770.49;;;1.72;89.95
47811;BME280;33575;52.600;7.318;2023-01-24T07:03:43;103773.03;;;1.72;88.54
47811;BME280;33575;52.600;7.318;2023-01-24T07:06:13;103774.49;;;1.67;89.49
47811;BME280;33575;52.600;7.318;2023-01-24T07:08:43;103776.31;;;1.58;90.68
47811;BME280;33575;52.600;7.318;2023-01-24T07:11:14;103774.39;;;1.60;90.65
47811;BME280;33575;52.600;7.318;2023-01-24T07:13:44;103778.86;;;1.61;90.65
47811;BME280;33575;52.600;7.318;2023-01-24T07:16:15;103781.78;;;1.65;90.89
47811;BME280;33575;52.600;7.318;2023-01-24T07:18:46;103783.74;;;1.68;90.86
47811;BME280;33575;52.600;7.318;2023-01-24T07:21:16;103787.42;;;1.71;91.64
47811;BME280;33575;52.600;7.318;2023-01-24T07:23:49;103791.85;;;1.77;91.13
47811;BME280;33575;52.600;7.318;2023-01-24T07:26:18;103792.25;;;1.79;90.92
47811;BME280;33575;52.600;7.318;2023-01-24T07:28:48;103803.19;;;1.81;91.16
47811;BME280;33575;52.600;7.318;2023-01-24T07:31:18;103810.42;;;1.84;90.73
47811;BME280;33575;52.600;7.318;2023-01-24T07:33:49;103806.45;;;1.80;90.37
47811;BME280;33575;52.600;7.318;2023-01-24T07:36:20;103810.43;;;1.83;90.20
47811;BME280;33575;52.600;7.318;2023-01-24T07:38:53;103809.93;;;1.84;89.90
47811;BME280;33575;52.600;7.318;2023-01-24T07:41:21;103814.02;;;1.72;90.04
47811;BME280;33575;52.600;7.318;2023-01-24T07:43:52;103816.24;;;1.66;90.18
47811;BME280;33575;52.600;7.318;2023-01-24T07:46:22;103821.68;;;1.68;90.57
47811;BME280;33575;52.600;7.318;2023-01-24T07:48:53;103820.44;;;1.75;90.30
47811;BME280;33575;52.600;7.318;2023-01-24T07:51:23;103821.83;;;1.81;90.08
47811;BME280;33575;52.600;7.318;2023-01-24T07:53:53;103822.41;;;1.85;89.75
47811;BME280;33575;52.600;7.318;2023-01-24T07:56:27;103827.43;;;1.85;89.69
47811;BME280;33575;52.600;7.318;2023-01-24T07:58:54;103828.58;;;1.84;89.47
47811;BME280;33575;52.600;7.318;2023-01-24T08:01:25;103829.36;;;1.84;90.03
47811;BME280;33575;52.600;7.318;2023-01-24T08:03:57;103830.55;;;1.83;89.78
47811;BME280;33575;52.600;7.318;2023-01-24T08:06:26;103830.16;;;1.79;89.35
47811;BME280;33575;52.600;7.318;2023-01-24T08:08:56;103829.41;;;1.84;89.81
47811;BME280;33575;52.600;7.318;2023-01-24T08:11:26;103826.48;;;1.84;89.45
47811;BME280;33575;52.600;7.318;2023-01-24T08:13:57;103827.50;;;1.78;89.59
47811;BME280;33575;52.600;7.318;2023-01-24T08:16:28;103824.61;;;1.74;90.47
47811;BME280;33575;52.600;7.318;2023-01-24T08:18:58;103831.56;;;1.74;89.69
47811;BME280;33575;52.600;7.318;2023-01-24T08:21:28;103834.43;;;1.73;89.81
47811;BME280;33575;52.600;7.318;2023-01-24T08:23:59;103833.89;;;1.66;90.21
47811;BME280;33575;52.600;7.318;2023-01-24T08:26:29;103834.93;;;1.63;89.86
47811;BME280;33575;52.600;7.318;2023-01-24T08:28:59;103839.91;;;1.62;89.76
47811;BME280;33575;52.600;7.318;2023-01-24T08:31:30;103841.38;;;1.67;89.75
47811;BME280;33575;52.600;7.318;2023-01-24T08:34:00;103843.66;;;1.75;89.55
47811;BME280;33575;52.600;7.318;2023-01-24T08:36:30;103845.10;;;1.77;89.96
47811;BME280;33575;52.600;7.318;2023-01-24T08:39:06;103849.23;;;1.78;89.81
47811;BME280;33575;52.600;7.318;2023-01-24T08:41:32;103848.83;;;1.83;89.35
47811;BME280;33575;52.600;7.318;2023-01-24T08:44:02;103851.26;;;1.80;89.70
47811;BME280;33575;52.600;7.318;2023-01-24T08:46:32;103852.16;;;1.82;89.69
47811;BME280;33575;52.600;7.318;2023-01-24T08:49:03;103854.85;;;1.85;88.89
47811;BME280;33575;52.600;7.318;2023-01-24T08:51:33;103859.92;;;1.89;89.44
47811;BME280;33575;52.600;7.318;2023-01-24T08:54:04;103861.78;;;1.80;89.59
47811;BME280;33575;52.600;7.318;2023-01-24T08:56:34;103861.23;;;1.81;89.46
47811;BME280;33575;52.600;7.318;2023-01-24T08:59:04;103861.11;;;1.84;89.15
47811;BME280;33575;52.600;7.318;2023-01-24T09:01:34;103860.77;;;1.83;89.75
47811;BME280;33575;52.600;7.318;2023-01-24T09:04:04;103863.62;;;1.91;89.45
47811;BME280;33575;52.600;7.318;2023-01-24T09:06:35;103866.28;;;1.97;88.91
47811;BME280;33575;52.600;7.318;2023-01-24T09:09:06;103866.62;;;2.01;88.53
47811;BME280;33575;52.600;7.318;2023-01-24T09:11:36;103868.87;;;1.90;89.48
47811;BME280;33575;52.600;7.318;2023-01-24T09:14:07;103869.68;;;1.92;88.48
47811;BME280;33575;52.600;7.318;2023-01-24T09:16:38;103866.51;;;1.86;87.90
47811;BME280;33575;52.600;7.318;2023-01-24T09:19:10;103871.66;;;1.90;89.18
47811;BME280;33575;52.600;7.318;2023-01-24T09:21:39;103871.67;;;1.85;89.30
47811;BME280;33575;52.600;7.318;2023-01-24T09:24:10;103871.34;;;1.87;89.42
47811;BME280;33575;52.600;7.318;2023-01-24T09:26:40;103869.69;;;1.91;89.34
47811;BME280;33575;52.600;7.318;2023-01-24T09:29:13;103872.83;;;1.94;89.34
47811;BME280;33575;52.600;7.318;2023-01-24T09:31:41;103874.21;;;1.84;89.53
47811;BME280;33575;52.600;7.318;2023-01-24T09:34:11;103876.63;;;1.86;89.38
47811;BME280;33575;52.600;7.318;2023-01-24T09:36:42;103875.24;;;1.81;89.60
47811;BME280;33575;52.600;7.318;2023-01-24T09:39:13;103874.32;;;1.75;89.32
47811;BME280;33575;52.600;7.318;2023-01-24T09:41:52;103873.88;;;1.67;89.45
47811;BME280;33575;52.600;7.318;2023-01-24T09:44:20;103872.00;;;1.75;89.08
47811;BME280;33575;52.600;7.318;2023-01-24T09:46:47;103869.80;;;1.71;89.95
47811;BME280;33575;52.600;7.318;2023-01-24T09:49:21;103875.58;;;1.78;89.31
47811;BME280;33575;52.600;7.318;2023-01-24T09:51:47;103877.66;;;1.84;89.22
47811;BME280;33575;52.600;7.318;2023-01-24T09:54:21;103880.07;;;1.90;89.11
47811;BME280;33575;52.600;7.318;2023-01-24T09:56:46;103878.99;;;2.00;89.12
47811;BME280;33575;52.600;7.318;2023-01-24T09:59:20;103881.47;;;2.09;89.13
47811;BME280;33575;52.600;7.318;2023-01-24T10:01:47;103884.70;;;2.18;89.10
47811;BME280;33575;52.600;7.318;2023-01-24T10:04:19;103884.75;;;2.23;88.17
47811;BME280;33575;52.600;7.318;2023-01-24T10:07:02;103887.17;;;2.10;89.25
47811;BME280;33575;52.600;7.318;2023-01-24T10:09:22;103883.04;;;2.11;88.89
47811;BME280;33575;52.600;7.318;2023-01-24T10:11:54;103877.03;;;2.12;89.14
47811;BME280;33575;52.600;7.318;2023-01-24T10:14:30;103873.60;;;2.09;87.91
47811;BME280;33575;52.600;7.318;2023-01-24T10:17:00;103875.19;;;2.11;88.74
47811;BME280;33575;52.600;7.318;2023-01-24T10:19:28;103877.49;;;2.12;88.26
47811;BME280;33575;52.600;7.318;2023-01-24T10:22:06;103882.98;;;2.13;88.35
47811;BME280;33575;52.600;7.318;2023-01-24T10:24:26;103882.73;;;2.14;88.16
47811;BME280;33575;52.600;7.318;2023-01-24T10:26:52;103877.62;;;2.25;88.15
47811;BME280;33575;52.600;7.318;2023-01-24T10:29:24;103874.36;;;2.33;88.37
47811;BME280;33575;52.600;7.318;2023-01-24T10:31:58;103867.10;;;2.38;88.79
47811;BME280;33575;52.600;7.318;2023-01-24T10:34:29;103866.20;;;2.47;88.97
47811;BME280;33575;52.600;7.318;2023-01-24T10:36:56;103866.57;;;2.53;88.97
47811;BME280;33575;52.600;7.318;2023-01-24T10:39:24;103864.83;;;2.59;88.86
47811;BME280;33575;52.600;7.318;2023-01-24T10:41:54;103861.60;;;2.66;96.33
47811;BME280;33575;52.600;7.318;2023-01-24T10:44:26;103858.52;;;2.67;91.41
47811;BME280;33575;52.600;7.318;2023-01-24T10:49:28;103848.96;;;2.31;87.63
47811;BME280;33575;52.600;7.318;2023-01-24T10:54:25;103841.51;;;2.04;88.16
47811;BME280;33575;52.600;7.318;2023-01-24T10:56:56;103840.83;;;1.87;88.43
47811;BME280;33575;52.600;7.318;2023-01-24T10:59:26;103836.63;;;1.80;88.82
47811;BME280;33575;52.600;7.318;2023-01-24T11:01:59;103839.35;;;1.72;89.25
47811;BME280;33575;52.600;7.318;2023-01-24T11:04:29;103834.61;;;1.67;89.60
47811;BME280;33575;52.600;7.318;2023-01-24T11:06:57;103830.54;;;1.63;90.35
47811;BME280;33575;52.600;7.318;2023-01-24T11:09:30;103826.87;;;1.58;90.67
47811;BME280;33575;52.600;7.318;2023-01-24T11:11:59;103822.61;;;1.67;90.85
47811;BME280;33575;52.600;7.318;2023-01-24T11:14:32;103827.06;;;1.72;90.73
47811;BME280;33575;52.600;7.318;2023-01-24T11:17:00;103827.82;;;1.79;90.61
47811;BME280;33575;52.600;7.318;2023-01-24T11:19:31;103824.30;;;1.88;90.38
47811;BME280;33575;52.600;7.318;2023-01-24T11:22:02;103822.37;;;1.95;90.02
47811;BME280;33575;52.600;7.318;2023-01-24T11:24:30;103825.49;;;1.99;90.31
47811;BME280;33575;52.600;7.318;2023-01-24T11:27:04;103825.70;;;2.02;89.28
47811;BME280;33575;52.600;7.318;2023-01-24T11:29:31;103821.00;;;2.07;89.42
47811;BME280;33575;52.600;7.318;2023-01-24T11:32:17;103821.75;;;2.07;89.82
47811;BME280;33575;52.600;7.318;2023-01-24T11:34:41;103819.17;;;2.15;89.13
47811;BME280;33575;52.600;7.318;2023-01-24T11:37:11;103813.14;;;2.14;89.42
47811;BME280;33575;52.600;7.318;2023-01-24T11:39:39;103812.66;;;2.19;89.25
47811;BME280;33575;52.600;7.318;2023-01-24T11:42:11;103818.20;;;2.24;88.82
47811;BME280;33575;52.600;7.318;2023-01-24T11:44:43;103816.13;;;2.30;89.20
47811;BME280;33575;52.600;7.318;2023-01-24T11:47:09;103814.94;;;2.32;89.17
47811;BME280;33575;52.600;7.318;2023-01-24T11:49:46;103812.87;;;2.37;88.87
47811;BME280;33575;52.600;7.318;2023-01-24T11:52:22;103815.96;;;2.42;88.65
47811;BME280;33575;52.600;7.318;2023-01-24T11:54:43;103813.95;;;2.41;88.59
47811;BME280;33575;52.600;7.318;2023-01-24T11:57:14;103811.85;;;2.44;88.44
47811;BME280;33575;52.600;7.318;2023-01-24T11:59:48;103814.13;;;2.49;88.51
47811;BME280;33575;52.600;7.318;2023-01-24T12:02:23;103812.16;;;2.51;87.77
47811;BME280;33575;52.600;7.318;2023-01-24T12:04:45;103808.80;;;2.46;88.30
47811;BME280;33575;52.600;7.318;2023-01-24T12:07:14;103806.66;;;2.45;87.85
47811;BME280;33575;52.600;7.318;2023-01-24T12:09:41;103805.52;;;2.46;87.89
47811;BME280;33575;52.600;7.318;2023-01-24T12:12:14;103799.90;;;2.47;87.97
47811;BME280;33575;52.600;7.318;2023-01-24T12:14:56;103800.93;;;2.47;87.68
47811;BME280;33575;52.600;7.318;2023-01-24T12:17:27;103797.72;;;2.50;87.89
47811;BME280;33575;52.600;7.318;2023-01-24T12:19:53;103797.16;;;2.51;88.15
47811;BME280;33575;52.600;7.318;2023-01-24T12:22:16;103800.16;;;2.54;87.85
47811;BME280;33575;52.600;7.318;2023-01-24T12:24:43;103802.57;;;2.51;86.91
47811;BME280;33575;52.600;7.318;2023-01-24T12:27:14;103799.75;;;2.50;87.42
47811;BME280;33575;52.600;7.318;2023-01-24T12:29:45;103794.74;;;2.42;88.26
47811;BME280;33575;52.600;7.318;2023-01-24T12:32:17;103790.35;;;2.41;87.68
47811;BME280;33575;52.600;7.318;2023-01-24T12:34:49;103782.02;;;2.39;88.22
47811;BME280;33575;52.600;7.318;2023-01-24T12:37:23;103785.26;;;2.40;88.04
47811;BME280;33575;52.600;7.318;2023-01-24T12:39:51;103785.17;;;2.43;88.18
47811;BME280;33575;52.600;7.318;2023-01-24T12:42:18;103779.66;;;2.46;87.55
47811;BME280;33575;52.600;7.318;2023-01-24T12:44:50;103777.39;;;2.48;87.65
47811;BME280;33575;52.600;7.318;2023-01-24T12:47:23;103772.55;;;2.53;87.56
47811;BME280;33575;52.600;7.318;2023-01-24T12:49:53;103766.91;;;2.49;87.54
47811;BME280;33575;52.600;7.318;2023-01-24T12:52:22;103766.97;;;2.42;87.80
47811;BME280;33575;52.600;7.318;2023-01-24T12:54:50;103765.94;;;2.41;87.60
47811;BME280;33575;52.600;7.318;2023-01-24T12:57:22;103759.29;;;2.48;87.70
47811;BME280;33575;52.600;7.318;2023-01-24T12:59:48;103758.93;;;2.54;87.31
47811;BME280;33575;52.600;7.318;2023-01-24T13:02:31;103761.54;;;2.52;86.72
47811;BME280;33575;52.600;7.318;2023-01-24T13:04:55;103758.94;;;2.50;87.01
47811;BME280;33575;52.600;7.318;2023-01-24T13:07:30;103756.93;;;2.38;84.92
47811;BME280;33575;52.600;7.318;2023-01-24T13:09:55;103753.79;;;2.26;85.71
47811;BME280;33575;52.600;7.318;2023-01-24T13:12:23;103749.71;;;2.22;86.52
47811;BME280;33575;52.600;7.318;2023-01-24T13:14:54;103751.77;;;2.19;86.10
47811;BME280;33575;52.600;7.318;2023-01-24T13:20:01;103747.84;;;2.26;88.62
47811;BME280;33575;52.600;7.318;2023-01-24T13:22:36;103743.86;;;2.31;89.07
47811;BME280;33575;52.600;7.318;2023-01-24T13:25:02;103741.12;;;2.40;88.23
47811;BME280;33575;52.600;7.318;2023-01-24T13:27:33;103739.65;;;2.38;86.74
47811;BME280;33575;52.600;7.318;2023-01-24T13:30:05;103738.93;;;2.33;87.01